Home > Products > Valid Products > TAF

000
FTUS46 KLOX 312300 RRA
TAFPMD
TAF
KPMD 312340Z 0100/0124 22027G35KT 6SM BLDU BKN250
     FM010100 24017G25KT P6SM BKN250
     FM010400 25014KT P6SM SCT040 BKN080
     FM010900 25018KT P6SM -SHRA SCT025 OVC040
     FM011300 26015KT P6SM VCSH SCT040 BKN080
     FM011500 26013KT P6SM OVC050
     FM011800 26017G23KT P6SM SCT050 BKN250
     FM012000 26020G28KT P6SM SCT250=



000
FTUS46 KLOX 312300 RRA
TAFSBA
TAF
KSBA 312340Z 0100/0124 14012KT P6SM BKN040 OVC060
     FM010200 11008KT P6SM -SHRA BKN015 OVC040
     FM010500 10008KT 5SM -RA BR OVC015
     FM011000 30008KT P6SM -SHRA SCT015 OVC025
     FM011400 03007KT P6SM VCSH SCT025 OVC040
     FM011700 20008KT P6SM SCT025 OVC040
     FM012100 28009KT P6SM SCT025 BKN050=



000
FTUS46 KLOX 312300 RRA
TAFBUR
TAF
KBUR 312340Z 0100/0124 18006KT P6SM SCT030 OVC035
     FM010300 15008KT P6SM VCSH SCT015 OVC025
     FM010700 15008KT P6SM -SHRA OVC015
     FM011000 14010KT 4SM -RA BR SCT007 OVC015
     FM011400 33010KT P6SM -SHRA SCT025 OVC035
     FM011700 25010KT P6SM SCT025 BKN040
     FM012100 18007KT P6SM SCT030 OVC050=



000
FTUS46 KLOX 312300 RRA
TAFSBP
TAF
KSBP 312340Z 0100/0124 19010KT P6SM BKN045 OVC060
     FM010200 21010KT 5SM -RA BR BKN015 OVC035
     FM010600 27008KT P6SM -SHRA SCT015 OVC025
     FM011200 VRB03KT P6SM VCSH BKN025 OVC040
     FM011400 VRB03KT P6SM VCSH SCT025 OVC050
     FM011800 VRB03KT P6SM BKN050
     FM012100 29007KT P6SM SCT050=



000
FTUS46 KLOX 312300 RRA
TAFLAX
TAF
KLAX 312340Z 0100/0206 25007KT P6SM SCT025 OVC045
     FM010200 24010KT P6SM BKN025 OVC050
     FM010600 22015KT P6SM -SHRA SCT015 OVC025
     FM010900 26017G23KT 5SM -RA BR SCT015 OVC025
     FM011400 28012KT P6SM -SHRA SCT025 OVC035
     FM011800 27015KT P6SM SCT025 OVC040
     FM012000 26015KT P6SM SCT030 OVC050
     FM020400 25009KT P6SM SCT025 OVC040=



000
FTUS46 KLOX 312300 RRA
TAFWJF
TAF
KWJF 312340Z 0100/0124 22025G32KT 4SM BLDU BKN250
     FM010100 23016G24KT P6SM BKN250
     FM010400 25014KT P6SM SCT040 BKN080
     FM010900 25018G26KT P6SM -SHRA SCT025 OVC040
     FM011300 26016G23KT P6SM VCSH SCT040 BKN080
     FM011500 25016G23KT P6SM OVC050
     FM011800 24018G26KT P6SM SCT050 BKN250
     FM012000 24022G30KT P6SM SCT250=



000
FTUS46 KLOX 312300 RRA
TAFVNY
TAF
KVNY 312340Z 0100/0124 16006KT P6SM OVC035
     FM010300 15008KT P6SM VCSH BKN015 OVC025
     FM010700 15008KT P6SM -SHRA OVC015
     FM011000 17005KT 4SM -RA BR SCT007 OVC015
     FM011400 25008KT P6SM -SHRA SCT025 BKN035
     FM011700 23006KT P6SM SCT025 BKN040
     FM012100 16006KT P6SM SCT030 OVC050=



000
FTUS46 KLOX 312300 RRA
TAFLGB
TAF
KLGB 312340Z 0100/0124 19007KT P6SM OVC060
     FM010300 20006KT P6SM BKN025 OVC050
     FM010700 23008KT P6SM -SHRA SCT015 OVC025
     FM011000 24010KT 5SM -RA BR BKN015 OVC025
     FM011500 29010KT P6SM -SHRA SCT025 OVC035
     FM011800 26007KT P6SM SCT030 BKN040
     FM012100 29012KT P6SM SCT030 BKN040=



000
FTUS46 KLOX 312300 RRA
TAFPRB
TAF
KPRB 312340Z 0100/0124 25012KT P6SM BKN040 OVC050
     FM010200 21015G20KT P6SM VCSH BKN025 OVC060
     FM010500 21008KT 5SM -RA BR BKN015 OVC035
     FM010700 27008KT P6SM -SHRA BKN015 OVC040
     FM011100 VRB03KT P6SM VCSH BKN015 OVC040
     FM011400 VRB03KT P6SM VCSH SCT025 OVC050
     FM011800 VRB03KT P6SM SCT050 BKN100
     FM012100 23005KT P6SM SCT250=



000
FTUS46 KLOX 312300 RRA
TAFSMX
TAF
KSMX 312340Z 0100/0124 18013KT P6SM BKN060
     FM010200 23012KT P6SM VCSH BKN025 OVC060
     FM010400 21010KT 5SM -RA BR BKN015 OVC035
     FM010700 27008KT P6SM -SHRA SCT015 OVC025
     FM011300 VRB03KT P6SM VCSH BKN025 OVC040
     FM011700 VRB03KT P6SM SCT025 OVC050
     FM012100 28008KT P6SM SCT025 BKN050=



000
FTUS46 KLOX 312200 AAA
TAFSBA
TAF AMD
KSBA 312222Z 3122/0118 13010KT P6SM SCT040 OVC060
     FM010200 11008KT P6SM -SHRA BKN015 OVC040
     FM010500 10008KT 5SM -RA BR OVC015
     FM011000 30008KT P6SM -SHRA SCT015 OVC025
     FM011500 VRB03KT P6SM VCSH BKN015 OVC025=



000
FTUS46 KLOX 312200 AAA
TAFSMX
TAF AMD
KSMX 312221Z 3122/0118 21007KT P6SM SCT040 BKN060
     FM010100 23012KT P6SM VCSH BKN025 OVC060
     FM010400 21010KT 5SM -RA BR BKN015 OVC035
     FM010700 27008KT P6SM -SHRA SCT015 OVC025
     FM011300 VRB03KT P6SM VCSH BKN025 OVC040=



000
FTUS46 KLOX 312200 AAA
TAFPRB
TAF AMD
KPRB 312220Z 3122/0118 23013KT P6SM SCT040 OVC045
     FM010100 21015G20KT P6SM VCSH BKN025 OVC060
     FM010400 21008KT 5SM -RA BR BKN015 OVC035
     FM010700 27008KT P6SM -SHRA BKN015 OVC040
     FM011100 VRB03KT P6SM VCSH BKN015 OVC040=



000
FTUS46 KLOX 312000 AAB
TAFLAX
TAF AMD
KLAX 312050Z 3121/0124 24008KT P6SM SCT027 OVC035
     FM010200 24010KT P6SM BKN025 OVC050
     FM010600 24010KT P6SM -SHRA BKN015 OVC035
     FM010900 26012KT 5SM -RA BR OVC015
     FM011400 27014KT P6SM -SHRA SCT015 OVC025
     FM011800 27015KT P6SM VCSH BKN025 OVC040=



000
FTUS46 KLOX 312000 AAA
TAFSBP
TAF AMD
KSBP 312045Z 3121/0118 18007KT P6SM VCSH SCT028 BKN045
     FM010100 21010KT 5SM -RA BR BKN015 OVC035
     FM010600 27008KT P6SM -SHRA SCT015 OVC025
     FM011200 VRB03KT P6SM VCSH BKN025 OVC040=



000
FTUS46 KLOX 311800 AAA
TAFLAX
TAF AMD
KLAX 311843Z 3119/0124 23005KT P6SM BKN025 BKN040
     FM312000 25010KT P6SM BKN035 BKN100
     FM010200 24010KT P6SM BKN025 OVC050
     FM010600 24010KT P6SM -SHRA BKN015 OVC035
     FM010900 26012KT 5SM -RA BR OVC015
     FM011400 27014KT P6SM -SHRA SCT015 OVC025
     FM011800 27015KT P6SM VCSH BKN025 OVC040=



000
FTUS46 KLOX 311700 RRA
TAFSBP
TAF
KSBP 311741Z 3118/0118 21006KT P6SM BKN023 BKN045
     FM312000 22012KT P6SM VCSH BKN025 OVC060
     FM010100 21010KT 5SM -RA BR BKN015 OVC035
     FM010600 27008KT P6SM -SHRA SCT015 OVC025
     FM011200 VRB03KT P6SM VCSH BKN025 OVC040=



000
FTUS46 KLOX 311700 RRA
TAFSMX
TAF
KSMX 311741Z 3118/0118 24003KT P6SM OVC045
     FM312000 20008KT P6SM BKN035 OVC060
     FM312200 23012KT P6SM VCSH BKN025 OVC060
     FM010200 21010KT 5SM -RA BR BKN015 OVC035
     FM010700 27008KT P6SM -SHRA SCT015 OVC025
     FM011300 VRB03KT P6SM VCSH BKN025 OVC040=



000
FTUS46 KLOX 311700 RRA
TAFPMD
TAF
KPMD 311741Z 3118/0118 00000KT P6SM SKC
     FM312100 23015G25KT P6SM SCT060 BKN100
     FM010400 25012KT P6SM SCT040 BKN080
     FM010900 25012KT P6SM -SHRA SCT025 OVC040
     FM011300 26015KT P6SM VCSH SCT040 BKN080=



000
FTUS46 KLOX 311700 RRA
TAFVNY
TAF
KVNY 311741Z 3118/0118 02003KT P6SM BKN027
     FM312100 15008KT P6SM BKN025 BKN100
     FM010300 15008KT P6SM VCSH BKN015 OVC025
     FM010700 15008KT P6SM -SHRA OVC015
     FM011000 13010KT 4SM -RA BR SCT007 OVC015
     FM011500 25008KT P6SM -SHRA SCT010 BKN020=



000
FTUS46 KLOX 311700 RRA
TAFSBA
TAF
KSBA 311741Z 3118/0118 00000KT P6SM SCT016 BKN022 OVC028
     FM312000 17007KT P6SM BKN035 BKN100
     FM312200 25010KT P6SM BKN025 BKN080
     FM010200 11008KT P6SM -SHRA BKN015 OVC040
     FM010500 10008KT 5SM -RA BR OVC015
     FM011000 30008KT P6SM -SHRA SCT015 OVC025
     FM011500 VRB03KT P6SM VCSH BKN015 OVC025=



000
FTUS46 KLOX 311700 RRA
TAFLAX
TAF
KLAX 311741Z 3118/0124 04004KT P6SM SCT018 BKN040
     FM312000 25010KT P6SM BKN035 BKN100
     FM010200 24010KT P6SM BKN025 OVC050
     FM010600 24010KT P6SM -SHRA BKN015 OVC035
     FM010900 26012KT 5SM -RA BR OVC015
     FM011400 27014KT P6SM -SHRA SCT015 OVC025
     FM011800 27015KT P6SM VCSH BKN025 OVC040=



000
FTUS46 KLOX 311700 RRA
TAFWJF
TAF
KWJF 311741Z 3118/0118 25020G25KT P6SM SKC
     FM312100 23018G28KT P6SM SCT060 BKN100
     FM010400 25014KT P6SM SCT040 BKN080
     FM010900 25012KT P6SM -SHRA SCT025 OVC040
     FM011300 26015KT P6SM VCSH SCT040 BKN080=



000
FTUS46 KLOX 311700 RRA
TAFLGB
TAF
KLGB 311741Z 3118/0118 00000KT 6SM HZ BKN020 OVC040
     FM312000 19008KT P6SM BKN035 BKN100
     FM010300 20006KT P6SM BKN025 OVC050
     FM010700 23008KT P6SM -SHRA SCT015 OVC025
     FM011000 24010KT 5SM -RA BR BKN015 OVC025
     FM011500 29010KT P6SM -SHRA SCT015 OVC025=



000
FTUS46 KLOX 311700 RRA
TAFPRB
TAF
KPRB 311741Z 3118/0118 24004KT P6SM BKN026 OVC040
     FM312200 21015G20KT P6SM VCSH BKN025 OVC060
     FM010200 21008KT 5SM -RA BR BKN015 OVC035
     FM010700 27008KT P6SM -SHRA BKN015 OVC040
     FM011100 VRB03KT P6SM VCSH BKN015 OVC040=



000
FTUS46 KLOX 311700 RRA
TAFBUR
TAF
KBUR 311741Z 3118/0118 00000KT P6SM SCT018 OVC035
     FM312100 17008KT P6SM BKN025 BKN100
     FM010300 15008KT P6SM VCSH BKN015 OVC025
     FM010700 15008KT P6SM -SHRA OVC015
     FM011000 14010KT 4SM -RA BR SCT007 OVC015
     FM011500 33010KT P6SM -SHRA SCT010 OVC020=



000
FTUS46 KLOX 311600 AAB
TAFVNY
TAF AMD
KVNY 311604Z 3116/0112 00000KT 6SM HZ BKN035 BKN200
     FM312100 15008KT P6SM BKN025 BKN100
     FM010300 15008KT P6SM VCSH BKN015 OVC025
     FM010700 15008KT P6SM -SHRA OVC015
     FM011000 13010KT 4SM -RA BR SCT007 OVC015=



000
FTUS46 KLOX 311400 AAA
TAFLAX
TAF AMD
KLAX 311452Z 3115/0118 10004KT P6SM FEW011 SCT016 BKN029
     FM312000 25010KT P6SM BKN035 BKN100
     FM010200 24010KT P6SM BKN025 OVC050
     FM010600 24010KT P6SM VCSH BKN015 OVC035
     FM010900 26012KT 5SM -RA BR OVC015
     FM011400 27014KT P6SM -SHRA SCT015 OVC025=



000
FTUS46 KLOX 311300 AAA
TAFPMD
TAF AMD
KPMD 311306Z 3113/0112 VRB05KT P6SM SCT200
     FM311800 24014KT P6SM SCT150
     FM312100 23015G25KT P6SM SCT060 BKN100
     FM010400 25012KT P6SM SCT040 BKN080
     FM010900 25012KT P6SM -SHRA SCT025 OVC040=



000
FTUS46 KLOX 311300 AAA
TAFSMX
TAF AMD
KSMX 311306Z 3113/0112 VRB03KT P6SM SCT025 OVC035
     FM311600 VRB03KT P6SM OVC025
     FM312000 20008KT P6SM BKN035 OVC060
     FM312200 23012KT P6SM VCSH BKN025 OVC060
     FM010200 21010KT 5SM -RA BR BKN015 OVC035
     FM010700 27008KT P6SM -SHRA SCT015 OVC025=



000
FTUS46 KLOX 311300 AAA
TAFVNY
TAF AMD
KVNY 311306Z 3113/0112 VRB03KT P6SM OVC010
     FM312100 15008KT P6SM BKN025 BKN100
     FM010300 15008KT P6SM VCSH BKN015 OVC025
     FM010700 15008KT P6SM -SHRA OVC015
     FM011000 13010KT 4SM -RA BR SCT007 OVC015=



000
FTUS46 KLOX 311300 AAA
TAFSBP
TAF AMD
KSBP 311306Z 3113/0112 VRB03KT P6SM SCT025 OVC035
     FM312000 22012KT P6SM VCSH BKN025 OVC060
     FM010100 21010KT 5SM -RA BR BKN015 OVC035
     FM010600 27008KT P6SM -SHRA SCT015 OVC025=



000
FTUS46 KLOX 311300 AAA
TAFSBA
TAF AMD
KSBA 311306Z 3113/0112 VRB03KT P6SM OVC035
     FM312000 17007KT P6SM BKN035 BKN100
     FM312200 25010KT P6SM BKN025 BKN080
     FM010200 11008KT P6SM -SHRA BKN015 OVC040
     FM010500 10008KT 5SM -RA BR OVC015
     FM011000 30008KT P6SM -SHRA SCT015 OVC025=



000
FTUS46 KLOX 311300 AAA
TAFLGB
TAF AMD
KLGB 311306Z 3113/0112 VRB03KT P6SM SCT025 OVC035
     FM312000 19008KT P6SM BKN035 BKN100
     FM010300 20006KT P6SM BKN025 OVC050
     FM010700 23008KT P6SM -SHRA SCT015 OVC025
     FM011000 24010KT 5SM -RA BR BKN015 OVC025=



000
FTUS46 KLOX 311100
TAFPRB
TAF
KPRB 311135Z 3112/0112 VRB03KT P6SM SCT015 OVC025
     FM311800 19008KT P6SM SCT025 BKN040
     FM312200 21015G25KT P6SM -SHRA BKN025 OVC060
     FM010200 21012G20KT 5SM -RA BR BKN015 OVC035
     FM010700 27008KT P6SM -SHRA BKN015 OVC040=



000
FTUS46 KLOX 311100
TAFSBA
TAF
KSBA 311135Z 3112/0112 VRB03KT P6SM OVC025
     FM312000 17007KT P6SM BKN035 BKN100
     FM312200 25010KT P6SM BKN025 BKN080
     FM010200 11008KT P6SM -SHRA BKN015 OVC040
     FM010500 10008KT 5SM -RA BR OVC015
     FM011000 30008KT P6SM -SHRA SCT015 OVC025=



000
FTUS46 KLOX 311100
TAFLAX
TAF
KLAX 311135Z 3112/0118 VRB03KT P6SM SCT015 BKN025
     FM312000 25010KT P6SM BKN035 BKN100
     FM010200 24010KT P6SM BKN025 OVC050
     FM010600 24010KT P6SM VCSH BKN015 OVC035
     FM010900 26012KT 5SM -RA BR OVC015
     FM011400 27014KT P6SM -SHRA SCT015 OVC025=



000
FTUS46 KLOX 311100
TAFPMD
TAF
KPMD 311135Z 3112/0112 28012KT P6SM SCT200
     FM311800 24014KT P6SM SCT150
     FM312100 23015G25KT P6SM SCT060 BKN100
     FM010400 25012KT P6SM SCT040 BKN080
     FM010900 25012KT P6SM -SHRA SCT025 OVC040=



000
FTUS46 KLOX 311100
TAFVNY
TAF
KVNY 311135Z 3112/0112 VRB03KT P6SM OVC008
     FM311400 VRB03KT P6SM OVC012
     FM312100 15008KT P6SM BKN025 BKN100
     FM010300 15008KT P6SM VCSH BKN015 OVC025
     FM010700 15008KT P6SM -SHRA OVC015
     FM011000 13010KT 4SM -RA BR SCT007 OVC015=



000
FTUS46 KLOX 311100
TAFWJF
TAF
KWJF 311135Z 3112/0112 24012KT P6SM SCT200
     FM311800 23016KT P6SM SCT150
     FM312100 23018G28KT P6SM SCT060 BKN100
     FM010400 25014KT P6SM SCT040 BKN080
     FM010900 25012KT P6SM -SHRA SCT025 OVC040=



000
FTUS46 KLOX 311100
TAFSBP
TAF
KSBP 311135Z 3112/0112 VRB03KT P6SM BKN025 OVC035
     FM312000 22012KT P6SM VCSH BKN025 OVC060
     FM010100 21010KT 5SM -RA BR BKN015 OVC035
     FM010600 27008KT P6SM -SHRA SCT015 OVC025=



000
FTUS46 KLOX 311100
TAFBUR
TAF
KBUR 311135Z 3112/0112 VRB03KT P6SM BKN012
     FM312100 17008KT P6SM BKN025 BKN100
     FM010300 15008KT P6SM VCSH BKN015 OVC025
     FM010700 15008KT P6SM -SHRA OVC015
     FM011000 14010KT 4SM -RA BR SCT007 OVC015=



000
FTUS46 KLOX 311100
TAFLGB
TAF
KLGB 311135Z 3112/0112 VRB03KT P6SM OVC018
     FM311400 VRB03KT P6SM SCT015 OVC025
     FM312000 19008KT P6SM BKN035 BKN100
     FM010300 20006KT P6SM BKN025 OVC050
     FM010700 23008KT P6SM -SHRA SCT015 OVC025
     FM011000 24010KT 5SM -RA BR BKN015 OVC025=



000
FTUS46 KLOX 311100
TAFSMX
TAF
KSMX 311135Z 3112/0112 VRB03KT P6SM BKN015 OVC035
     FM311600 VRB03KT P6SM OVC025
     FM312000 20008KT P6SM BKN035 OVC060
     FM312200 23012KT P6SM VCSH BKN025 OVC060
     FM010200 21010KT 5SM -RA BR BKN015 OVC035
     FM010700 27008KT P6SM -SHRA SCT015 OVC025=



000
FTUS46 KLOX 311000 AAA
TAFSBA
TAF AMD
KSBA 311007Z 3110/0106 VRB03KT P6SM OVC015
     FM312000 17007KT P6SM BKN025 BKN100
     FM312200 25010KT P6SM BKN025 BKN080
     FM010300 14006KT P6SM VCSH BKN015 OVC040=



000
FTUS46 KLOX 311000 AAA
TAFSBP
TAF AMD
KSBP 311007Z 3110/0106 VRB03KT P6SM SCT025 OVC035
     FM311600 VRB03KT P6SM OVC025
     FM312000 23012KT P6SM VCSH BKN025 OVC060
     FM010100 21010KT 5SM -RA BR BKN015 OVC035=



000
FTUS46 KLOX 311000 AAB
TAFPRB
TAF AMD
KPRB 311007Z 3110/0106 VRB03KT P6SM BKN025 OVC035
     FM311800 19008KT P6SM BKN025 BKN100
     FM312200 21015G25KT P6SM VCSH BKN025 OVC060
     FM010200 21012G22KT 5SM -RA BR BKN015 OVC035=



000
FTUS46 KLOX 311000 AAB
TAFLGB
TAF AMD
KLGB 311007Z 3110/0106 VRB03KT P6SM FEW015
     FM311100 VRB03KT P6SM OVC012
     FM312000 19008KT P6SM BKN025 BKN100
     FM010300 22008KT P6SM VCSH SCT015 OVC025=



000
FTUS46 KLOX 311000 AAB
TAFPRB
TAF AMD
KPRB 311007Z 3110/0106 VRB03KT P6SM BKN025 OVC035
     FM311800 19008KT P6SM BKN025 BKN100
     FM312200 21015G25KT P6SM VCSH BKN025 OVC060
     FM010200 21012G22KT 5SM -RA BR BKN015 OVC035=



000
FTUS46 KLOX 311000 AAB
TAFLGB
TAF AMD
KLGB 311007Z 3110/0106 VRB03KT P6SM FEW015
     FM311100 VRB03KT P6SM OVC012
     FM312000 19008KT P6SM BKN025 BKN100
     FM010300 22008KT P6SM VCSH SCT015 OVC025=



000
FTUS46 KLOX 311000 AAA
TAFSBP
TAF AMD
KSBP 311007Z 3110/0106 VRB03KT P6SM SCT025 OVC035
     FM311600 VRB03KT P6SM OVC025
     FM312000 23012KT P6SM VCSH BKN025 OVC060
     FM010100 21010KT 5SM -RA BR BKN015 OVC035=



000
FTUS46 KLOX 311000 AAA
TAFSBA
TAF AMD
KSBA 311007Z 3110/0106 VRB03KT P6SM OVC015
     FM312000 17007KT P6SM BKN025 BKN100
     FM312200 25010KT P6SM BKN025 BKN080
     FM010300 14006KT P6SM VCSH BKN015 OVC040=



000
FTUS46 KLOX 310900 AAB
TAFVNY
TAF AMD
KVNY 310901Z 3109/0106 VRB03KT P6SM OVC007
     FM311500 VRB03KT P6SM OVC012
     FM312100 14008KT P6SM BKN025 BKN100
     FM010300 15008KT P6SM VCSH BKN015 OVC035=



000
FTUS46 KLOX 310800 AAC
TAFLAX
TAF AMD
KLAX 310850Z 3109/0112 VRB03KT P6SM SCT015
     FM311000 VRB03KT P6SM BKN015
     FM312000 25010KT P6SM BKN025 BKN100
     FM010300 24010KT P6SM VCSH BKN015 OVC035
     FM010800 26012KT 5SM -RA BR OVC015=



000
FTUS46 KLOX 310700 AAA
TAFPRB
TAF AMD
KPRB 310759Z 3108/0106 VRB03KT P6SM OVC015
     FM311800 19008KT P6SM BKN025 BKN100
     FM312200 21015G25KT P6SM VCSH BKN025 OVC060
     FM010200 21012G22KT 5SM -RA BR BKN015 OVC035=



000
FTUS46 KLOX 310700 AAB
TAFLAX
TAF AMD
KLAX 310756Z 3108/0112 VRB03KT P6SM SCT015
     FM311000 VRB03KT P6SM BKN015
     FM312000 25010KT P6SM BKN025 BKN100
     FM010300 24010KT P6SM VCSH BKN015 OVC035
     FM010800 26012KT 5SM -RA BR OVC015=



000
FTUS46 KLOX 310700 AAA
TAFLGB
TAF AMD
KLGB 310721Z 3107/0106 VRB03KT P6SM FEW015
     FM311000 VRB03KT P6SM OVC012
     FM312000 19008KT P6SM BKN025 BKN100
     FM010300 22008KT P6SM VCSH SCT015 OVC025=



000
FTUS46 KLOX 310700 AAA
TAFBUR
TAF AMD
KBUR 310721Z 3107/0106 VRB03KT P6SM SKC
     FM311000 VRB03KT P6SM OVC007
     FM311500 VRB03KT P6SM OVC012
     FM312100 17008KT P6SM BKN025 BKN100
     FM010300 15008KT P6SM VCSH BKN015 OVC035=



000
FTUS46 KLOX 310700 AAA
TAFVNY
TAF AMD
KVNY 310721Z 3107/0106 VRB03KT P6SM SKC
     FM311000 VRB03KT P6SM OVC007
     FM311500 VRB03KT P6SM OVC012
     FM312100 14008KT P6SM BKN025 BKN100
     FM010300 15008KT P6SM VCSH BKN015 OVC035=



000
FTUS46 KLOX 310700 AAA
TAFLAX
TAF AMD
KLAX 310720Z 3107/0112 VRB03KT P6SM OVC012
     FM312000 25010KT P6SM BKN025 BKN100
     FM010300 24010KT P6SM VCSH BKN015 OVC035
     FM010800 26012KT 5SM -RA BR OVC015=



000
FTUS46 KLOX 310700 AAA
TAFSMX
TAF AMD
KSMX 310720Z 3107/0106 VRB03KT P6SM OVC015
     FM311600 VRB03KT P6SM OVC025
     FM312000 23012KT P6SM VCSH BKN025 OVC060
     FM010200 21010KT 5SM -RA BR BKN015 OVC035=



000
FTUS46 KLOX 310600 CCA
TAFSBP
TAF COR
KSBP 310618Z 3106/0106 VRB03KT P6SM OVC012
     FM311600 VRB03KT P6SM OVC025
     FM312000 23012KT P6SM VCSH BKN025 OVC060
     FM010100 21010KT 5SM -RA BR BKN015 OVC035=



000
FTUS46 KLOX 310500
TAFLGB
TAF
KLGB 310524Z 3106/0106 VRB03KT P6SM FEW015
     FM310800 VRB03KT P6SM OVC012
     FM312000 19008KT P6SM BKN025 BKN100
     FM010300 22008KT P6SM VCSH SCT015 OVC025=



000
FTUS46 KLOX 310500
TAFWJF
TAF
KWJF 310524Z 3106/0106 24012KT P6SM SCT200
     FM311800 23016KT P6SM SCT150
     FM312100 23018G28KT P6SM SCT060 BKN100
     FM010400 25014KT P6SM SCT040 BKN080=



000
FTUS46 KLOX 310500
TAFPRB
TAF
KPRB 310524Z 3106/0106 VRB03KT P6SM SCT200
     FM311000 VRB03KT P6SM OVC015
     FM311800 19008KT P6SM BKN025 BKN100
     FM312200 21015G25KT P6SM VCSH BKN025 OVC060
     FM010200 21012G22KT 5SM -RA BR BKN015 OVC035=



000
FTUS46 KLOX 310500
TAFPMD
TAF
KPMD 310524Z 3106/0106 23014KT P6SM SCT150
     FM310900 22010KT P6SM SCT200
     FM311800 23014KT P6SM SCT150
     FM312100 23015G25KT P6SM SCT060 BKN100
     FM010400 25012KT P6SM SCT040 BKN080=



000
FTUS46 KLOX 310500
TAFBUR
TAF
KBUR 310524Z 3106/0106 VRB03KT P6SM SKC
     FM310800 VRB03KT P6SM OVC007
     FM311500 VRB03KT P6SM OVC012
     FM312100 17008KT P6SM BKN025 BKN100
     FM010300 15008KT P6SM VCSH BKN015 OVC035=



000
FTUS46 KLOX 310500
TAFSMX
TAF
KSMX 310524Z 3106/0106 VRB03KT P6SM OVC008
     FM310800 VRB03KT P6SM OVC015
     FM311600 VRB03KT P6SM OVC025
     FM312000 23012KT P6SM VCSH BKN025 OVC060
     FM010200 21010KT 5SM -RA BR BKN015 OVC035=



000
FTUS46 KLOX 310500
TAFSBA
TAF
KSBA 310524Z 3106/0106 VRB03KT P6SM SKC
     FM310800 VRB03KT P6SM OVC008
     FM311500 VRB03KT P6SM OVC015
     FM312000 17007KT P6SM BKN025 BKN100
     FM312200 25010KT P6SM BKN025 BKN080
     FM010300 14006KT P6SM VCSH BKN015 OVC040=



000
FTUS46 KLOX 310500
TAFVNY
TAF
KVNY 310524Z 3106/0106 VRB03KT P6SM SKC
     FM310800 VRB03KT P6SM OVC007
     FM311500 VRB03KT P6SM OVC012
     FM312100 14008KT P6SM BKN025 BKN100
     FM010300 15008KT P6SM VCSH BKN015 OVC035=



000
FTUS46 KLOX 310500
TAFLAX
TAF
KLAX 310524Z 3106/0112 VRB03KT P6SM FEW012
     FM310700 VRB03KT P6SM OVC008
     FM311400 VRB03KT P6SM OVC015
     FM312000 25010KT P6SM BKN025 BKN100
     FM010300 24010KT P6SM VCSH BKN015 OVC035
     FM010800 26012KT 5SM -RA BR OVC015=



000
FTUS46 KLOX 310500
TAFSBP
TAF
KSBP 310524Z 3106/0106 VRB03KT P6SM OVC008
     FM310800 VRB03KT P6SM OVC015
     FM311600 VRB03KT P6SM OVC025
     FM312000 23012KT P6SM VCSH BKN025 OVC060
     FM010100 21010KT 5SM -RA BR BKN015 OVC035=



000
FTUS46 KLOX 310300 AAC
TAFLAX
TAF AMD
KLAX 310342Z 3104/0106 27007KT P6SM SCT015 BKN200
     FM310600 26005KT P6SM BKN017 BKN200
     FM310800 VRB03KT 5SM -DZ BR BKN008 BKN017
     FM311400 12005KT 6SM BR BKN017 OVC035
     FM311900 24007KT P6SM BKN025 BKN050
     FM312200 25010KT P6SM -SHRA BKN025 OVC040
     FM010400 19007KT 6SM -RA BKN012 OVC025=



000
FTUS46 KLOX 310300 AAC
TAFSBP
TAF AMD
KSBP 310342Z 3104/3124 VRB06KT P6SM SKC
     FM310500 27006KT P6SM BKN011 BKN110
     FM310900 VRB04KT P6SM OVC016
     FM311100 15004KT 5SM -DZ BR BKN011 OVC021
     FM311600 16007KT P6SM OVC021
     FM312000 23010KT P6SM VCSH BKN025 BKN050=



000
FTUS46 KLOX 310300 AAC
TAFSBP
TAF AMD
KSBP 310342Z 3104/3124 VRB06KT P6SM SKC
     FM310500 27006KT P6SM BKN011 BKN110
     FM310900 VRB04KT P6SM OVC016
     FM311100 15004KT 5SM -DZ BR BKN011 OVC021
     FM311600 16007KT P6SM OVC021
     FM312000 23010KT P6SM VCSH BKN025 BKN050=



000
FTUS46 KLOX 310300 AAC
TAFLAX
TAF AMD
KLAX 310342Z 3104/0106 27007KT P6SM SCT015 BKN200
     FM310600 26005KT P6SM BKN017 BKN200
     FM310800 VRB03KT 5SM -DZ BR BKN008 BKN017
     FM311400 12005KT 6SM BR BKN017 OVC035
     FM311900 24007KT P6SM BKN025 BKN050
     FM312200 25010KT P6SM -SHRA BKN025 OVC040
     FM010400 19007KT 6SM -RA BKN012 OVC025=



000
FTUS46 KLOX 310300 AAD
TAFSBA
TAF AMD
KSBA 310340Z 3104/3124 VRB03KT P6SM SKC
     FM310600 VRB03KT 6SM BR BKN007 OVC100
     FM310800 10005KT 5SM -DZ BR BKN007 BKN015
     FM311300 14005KT P6SM OVC020
     FM311700 17007KT P6SM VCSH BKN025 BKN040
     FM312200 25010KT P6SM -SHRA BKN020 OVC035=



000
FTUS46 KLOX 310300 AAD
TAFSBA
TAF AMD
KSBA 310340Z 3104/3124 VRB03KT P6SM SKC
     FM310600 VRB03KT 6SM BR BKN007 OVC100
     FM310800 10005KT 5SM -DZ BR BKN007 BKN015
     FM311300 14005KT P6SM OVC020
     FM311700 17007KT P6SM VCSH BKN025 BKN040
     FM312200 25010KT P6SM -SHRA BKN020 OVC035=



000
FTUS46 KLOX 310300 AAB
TAFSMX
TAF AMD
KSMX 310332Z 3104/3124 VRB03KT P6SM SCT200
     FM310500 VRB04KT P6SM BKN011 BKN110
     FM311000 16004KT 5SM -DZ BR BKN011 OVC021
     FM311600 17008KT P6SM OVC021
     FM312000 23010KT P6SM VCSH BKN025 BKN050=



000
FTUS46 KLOX 310300 AAB
TAFLGB
TAF AMD
KLGB 310302Z 3103/3124 30010KT P6SM SCT019 BKN200
     FM310600 26005KT P6SM BKN019 BKN200
     FM310900 VRB03KT 5SM -DZ BR BKN009 BKN019
     FM311400 14004KT 6SM BR BKN012 OVC024
     FM311800 17006KT P6SM BKN025 BKN050
     FM312200 21008KT P6SM -SHRA BKN025 OVC040=



000
FTUS46 KLOX 310300 AAC
TAFSBA
TAF AMD
KSBA 310301Z 3103/3124 26007KT P6SM SCT012 SCT100
     FM310430 VRB03KT 6SM BR BKN007 OVC100
     FM310630 10005KT 5SM -DZ BR BKN007 BKN015
     FM311300 14005KT P6SM OVC020
     FM311700 17007KT P6SM VCSH BKN025 BKN040
     FM312200 25010KT P6SM -SHRA BKN020 OVC035=



000
FTUS46 KLOX 310200 AAA
TAFVNY
TAF AMD
KVNY 310259Z 3103/3124 18008KT P6SM SCT150 BKN200
     FM310400 14004KT P6SM BKN150
     FM310900 VRB03KT 3SM -DZ BR BKN008 BKN016
     FM311600 15005KT P6SM BKN020 BKN050
     FM312000 16008KT P6SM BKN020 BKN050
     FM312300 18010KT P6SM -SHRA BKN020 OVC040=



000
FTUS46 KLOX 310200 AAA
TAFBUR
TAF AMD
KBUR 310258Z 3103/3124 18008KT P6SM SCT150 BKN200
     FM310400 15005KT P6SM BKN150
     FM310900 VRB03KT 3SM -DZ BR BKN008 BKN016
     FM311600 16005KT P6SM BKN020 BKN050
     FM312000 17008KT P6SM BKN020 BKN050
     FM312300 19010KT P6SM -SHRA BKN020 OVC040=



000
FTUS46 KLOX 310200 AAA
TAFLGB
TAF AMD
KLGB 310257Z 3103/3124 30010KT P6SM SCT014 BKN200
     FM310400 26005KT P6SM BKN014 BKN200
     FM310900 VRB03KT 5SM -DZ BR BKN010 BKN020
     FM311400 14004KT 6SM BR BKN015 OVC025
     FM311800 17006KT P6SM BKN025 BKN050
     FM312200 21008KT P6SM -SHRA BKN025 OVC040=



000
FTUS46 KLOX 310200 AAB
TAFSBP
TAF AMD
KSBP 310256Z 3103/3124 VRB06KT P6SM SCT017 BKN110
     FM310400 27006KT P6SM BKN011 BKN110
     FM310900 VRB04KT P6SM OVC016
     FM311100 15004KT 5SM -DZ BR BKN011 OVC021
     FM311600 16007KT P6SM OVC021
     FM312000 23010KT P6SM VCSH BKN025 BKN050=



000
FTUS46 KLOX 310200 AAB
TAFLAX
TAF AMD
KLAX 310254Z 3103/0106 27007KT P6SM SCT012 BKN200
     FM310430 26005KT P6SM BKN017 BKN200
     FM310800 VRB03KT 5SM -DZ BR BKN008 BKN017
     FM311400 12005KT 6SM BR BKN017 OVC035
     FM311900 24007KT P6SM BKN025 BKN050
     FM312200 25010KT P6SM -SHRA BKN025 OVC040
     FM010400 19007KT 6SM -RA BKN012 OVC025=



000
FTUS46 KLOX 310200 AAA
TAFLAX
TAF AMD
KLAX 310250Z 3103/0106 27007KT P6SM SCT012 BKN200
     FM310430 26005KT P6SM BKN012 BKN200
     FM310800 VRB03KT 5SM -DZ BR BKN009 BKN018
     FM311400 12005KT 6SM BR BKN012 OVC023
     FM311900 23010KT P6SM BKN025 BKN050
     FM010400 19010KT P6SM -SHRA BKN030 OVC070=



000
FTUS46 KLOX 310200 AAB
TAFSBA
TAF AMD
KSBA 310207Z 3102/3124 26007KT P6SM SCT012 SCT100
     FM310430 VRB03KT 6SM BR BKN007 OVC100
     FM310630 10005KT 5SM -DZ BR BKN007 BKN015
     FM311300 14005KT P6SM OVC020
     FM312000 19008KT P6SM SCT025 BKN040
     FM312300 25012G20KT P6SM -SHRA SCT025 BKN040=



000
FTUS46 KLOX 310200 AAA
TAFSBA
TAF AMD
KSBA 310205Z 3102/3124 26012KT P6SM SCT012 SCT100
     FM310430 VRB03KT 6SM BR BKN007 OVC100
     FM310630 10005KT 5SM -DZ BR BKN007 BKN015
     FM311300 14005KT P6SM OVC020
     FM312000 19008KT P6SM SCT025 BKN040
     FM312300 25012G20KT P6SM -SHRA SCT025 BKN040=



000
FTUS46 KLOX 310100 AAA
TAFPMD
TAF AMD
KPMD 310140Z 3102/3124 22008KT P6SM SCT120 BKN180
     FM310800 19006KT P6SM BKN120
     FM312000 22015G23KT P6SM BKN100
     FM312200 22019G27KT P6SM SCT050 BKN100=



000
FTUS46 KLOX 310100 AAA
TAFWJF
TAF AMD
KWJF 310140Z 3102/3124 22010KT P6SM SCT120 BKN180
     FM310300 25006KT P6SM BKN120
     FM311900 22017G25KT P6SM BKN100
     FM312100 22021G29KT P6SM SCT050 BKN100=



000
FTUS46 KLOX 310100 AAA
TAFSMX
TAF AMD
KSMX 310134Z 3102/3124 27009KT P6SM SCT017 BKN110
     FM310330 VRB04KT P6SM BKN011 BKN110
     FM311000 16004KT 5SM -DZ BR BKN011 OVC021
     FM311600 17008KT P6SM OVC021
     FM312000 23010KT P6SM VCSH BKN025 BKN050=



000
FTUS46 KLOX 310100 AAA
TAFSBP
TAF AMD
KSBP 310133Z 3102/3124 VRB06KT P6SM SCT017 BKN110
     FM310330 27006KT P6SM BKN011 BKN110
     FM310900 VRB04KT P6SM OVC016
     FM311100 15004KT 5SM -DZ BR BKN011 OVC021
     FM311600 16007KT P6SM OVC021
     FM312000 23010KT P6SM VCSH BKN025 BKN050=



000
FTUS46 KLOX 310000 AAA
TAFPRB
TAF AMD
KPRB 310002Z 3100/3124 22010KT P6SM SCT150 BKN200
     FM310300 19008KT P6SM BKN100 BKN150
     FM310700 VRB03KT P6SM BKN015 BKN100
     FM311600 19008KT P6SM OVC020
     FM312100 21015G25KT P6SM VCSH BKN025 BKN050=



000
FTUS46 KLOX 302300 RRA
TAFBUR
TAF
KBUR 302359Z 3100/3124 18008KT P6SM SCT150 BKN200
     FM310400 15005KT P6SM BKN150
     FM310900 VRB03KT 3SM -DZ BR BKN008 BKN016
     FM311600 16005KT P6SM BKN020 BKN050
     FM312000 19010KT P6SM BKN020 BKN050=



000
FTUS46 KLOX 302300 RRA
TAFPMD
TAF
KPMD 302359Z 3100/3124 22008KT P6SM SCT120 BKN180
     FM310800 19006KT P6SM BKN120
     FM312000 22015G23KT P6SM BKN100=



000
FTUS46 KLOX 302300 RRA
TAFSBP
TAF
KSBP 302359Z 3100/3124 VRB06KT P6SM SCT017 BKN110
     FM310200 27006KT P6SM BKN011 BKN110
     FM310900 VRB04KT P6SM OVC016
     FM311100 15004KT 5SM -DZ BR BKN011 OVC021
     FM311600 16007KT P6SM OVC021
     FM312000 23010KT P6SM VCSH BKN025 BKN050=



000
FTUS46 KLOX 302300 RRA
TAFWJF
TAF
KWJF 302359Z 3100/3124 22010KT P6SM SCT120 BKN180
     FM310300 25006KT P6SM BKN120
     FM311900 22017G25KT P6SM BKN100=



000
FTUS46 KLOX 302300 RRA
TAFVNY
TAF
KVNY 302359Z 3100/3124 18008KT P6SM SCT150 BKN200
     FM310400 14004KT P6SM BKN150
     FM310900 VRB03KT 3SM -DZ BR BKN008 BKN016
     FM311600 15005KT P6SM BKN020 BKN050
     FM312000 18010KT P6SM BKN020 BKN050=



000
FTUS46 KLOX 302300 RRA
TAFPRB
TAF
KPRB 302359Z 3100/3124 21012KT P6SM SCT150 BKN200
     FM310300 19008KT P6SM BKN100 BKN150
     FM310700 VRB03KT P6SM BKN015 BKN100
     FM311600 19008KT P6SM OVC020
     FM312100 21015G25KT P6SM VCSH BKN025 BKN050=



000
FTUS46 KLOX 302300 RRA
TAFSMX
TAF
KSMX 302359Z 3100/3124 27009KT P6SM SCT017 BKN110
     FM310200 VRB04KT P6SM BKN011 BKN110
     FM311000 16004KT 5SM -DZ BR BKN011 OVC021
     FM311600 17008KT P6SM OVC021
     FM312000 23010KT P6SM VCSH BKN025 BKN050=



000
FTUS46 KLOX 302300 RRA
TAFSBA
TAF
KSBA 302359Z 3100/3124 26012KT P6SM SCT012 SCT100
     FM310300 VRB03KT 6SM BR BKN007 OVC100
     FM310500 10005KT 5SM -DZ BR BKN007 BKN015
     FM311300 14005KT P6SM OVC020
     FM312000 19008KT P6SM SCT025 BKN040
     FM312300 25012G20KT P6SM -SHRA SCT025 BKN040=



000
FTUS46 KLOX 302300 RRA
TAFLGB
TAF
KLGB 302359Z 3100/3124 30010KT P6SM SCT014 BKN200
     FM310400 26005KT P6SM BKN014 BKN200
     FM310900 VRB03KT 5SM -DZ BR BKN010 BKN020
     FM311400 14004KT 6SM BR BKN015 OVC025
     FM311800 20008KT P6SM BKN025 BKN050=



000
FTUS46 KLOX 302300 RRA
TAFLAX
TAF
KLAX 302345Z 3100/0106 26013KT P6SM SCT012 BKN200
     FM310300 26005KT P6SM BKN012 BKN200
     FM310800 VRB03KT 5SM -DZ BR BKN009 BKN018
     FM311400 12005KT 6SM BR BKN012 OVC023
     FM311900 23010KT P6SM BKN025 BKN050
     FM010400 19010KT P6SM -SHRA BKN030 OVC070=



000
FTUS46 KLOX 302200 AAA
TAFSBP
TAF AMD
KSBP 302222Z 3022/3118 24006KT P6SM BKN022 BKN200
     FM310200 27008KT P6SM BKN022 OVC100
     FM310500 14006KT P6SM OVC025
     FM310900 VRB04KT P6SM BKN015 OVC030=



000
FTUS46 KLOX 302200 AAA
TAFSBP
TAF AMD
KSBP 302222Z 3022/3118 24006KT P6SM BKN022 BKN200
     FM310200 27008KT P6SM BKN022 OVC100
     FM310500 14006KT P6SM OVC025
     FM310900 VRB04KT P6SM BKN015 OVC030=



000
FTUS46 KLOX 302200 AAA
TAFLGB
TAF AMD
KLGB 302220Z 3022/3118 30010KT P6SM SCT012 SCT150 BKN200
     FM310400 VRB03KT P6SM BKN014 BKN200
     FM311100 VRB03KT P6SM BKN025
     FM311500 12005KT 4SM BR OVC015=



000
FTUS46 KLOX 302200 AAA
TAFLGB
TAF AMD
KLGB 302220Z 3022/3118 30010KT P6SM SCT012 SCT150 BKN200
     FM310400 VRB03KT P6SM BKN014 BKN200
     FM311100 VRB03KT P6SM BKN025
     FM311500 12005KT 4SM BR OVC015=



000
FTUS46 KLOX 302200 AAB
TAFLAX
TAF AMD
KLAX 302218Z 3022/3124 26013KT P6SM SCT012 BKN200
     FM310300 VRB03KT P6SM BKN012 BKN200
     FM311100 VRB03KT P6SM BKN025
     FM311500 12005KT 4SM BR OVC015
     FM312000 23010KT P6SM OVC015=



000
FTUS46 KLOX 302200 AAB
TAFLAX
TAF AMD
KLAX 302218Z 3022/3124 26013KT P6SM SCT012 BKN200
     FM310300 VRB03KT P6SM BKN012 BKN200
     FM311100 VRB03KT P6SM BKN025
     FM311500 12005KT 4SM BR OVC015
     FM312000 23010KT P6SM OVC015=



000
FTUS46 KLOX 302200 AAA
TAFSMX
TAF AMD
KSMX 302216Z 3022/3118 26010KT P6SM SCT025 BKN200
     FM310200 28008KT P6SM BKN025 OVC100
     FM310500 14006KT P6SM OVC025
     FM310900 VRB04KT P6SM BKN015 OVC030=



000
FTUS46 KLOX 302200 AAA
TAFSMX
TAF AMD
KSMX 302216Z 3022/3118 26010KT P6SM SCT025 BKN200
     FM310200 28008KT P6SM BKN025 OVC100
     FM310500 14006KT P6SM OVC025
     FM310900 VRB04KT P6SM BKN015 OVC030=



000
FTUS46 KLOX 302100 AAA
TAFPMD
TAF AMD
KPMD 302105Z 3021/3118 00000KT P6SM BKN200
     FM302200 25012KT P6SM SCT150 BKN200
     FM310200 25006KT P6SM SCT120 BKN180
     FM310800 25012KT P6SM BKN120=



000
FTUS46 KLOX 302100 AAB
TAFSBA
TAF AMD
KSBA 302104Z 3021/3118 26009KT P6SM SCT011 SCT100
     FM310300 VRB03KT P6SM OVC100
     FM310900 09006KT P6SM BKN015 OVC150=



000
FTUS46 KLOX 302000 AAA
TAFLAX
TAF AMD
KLAX 302050Z 3021/3124 26013KT P6SM FEW200
     FM310300 VRB03KT P6SM SCT150 BKN200
     FM311100 VRB03KT P6SM BKN025
     FM311500 12005KT 4SM BR OVC015
     FM312000 23010KT P6SM OVC015=



000
FTUS46 KLOX 302000 AAA
TAFSBA
TAF AMD
KSBA 302037Z 3021/3118 26011KT P6SM BKN011
     FM310300 VRB03KT P6SM OVC100
     FM310900 09006KT P6SM BKN015 OVC150=



000
FTUS46 KLOX 301700 RRA
TAFVNY
TAF
KVNY 301743Z 3018/3118 00000KT P6SM BKN200
     FM302000 16008KT P6SM SCT150 BKN200
     FM310400 VRB03KT P6SM BKN150
     FM311100 VRB03KT P6SM BKN020
     FM311500 12005KT 4SM BR OVC010=



000
FTUS46 KLOX 301700 RRA
TAFWJF
TAF
KWJF 301743Z 3018/3118 34003KT P6SM BKN200
     FM302000 19010KT P6SM SCT120 BKN200
     FM310200 25006KT P6SM SCT120 BKN180
     FM310900 25012KT P6SM BKN120=



000
FTUS46 KLOX 301700 RRA
TAFPRB
TAF
KPRB 301743Z 3018/3118 00000KT P6SM BKN200
     FM302100 21012KT P6SM SCT150 BKN200
     FM310300 24006KT P6SM OVC100
     FM310900 VRB03KT P6SM BKN030 OVC100=



000
FTUS46 KLOX 301700 RRA
TAFPMD
TAF
KPMD 301743Z 3018/3118 00000KT P6SM BKN200
     FM302100 25012KT P6SM SCT150 BKN200
     FM310200 25006KT P6SM SCT120 BKN180
     FM310800 25012KT P6SM BKN120=



000
FTUS46 KLOX 301700 RRA
TAFLGB
TAF
KLGB 301743Z 3018/3118 34003KT P6SM BKN200
     FM302300 25008KT P6SM SCT150 BKN200
     FM310300 VRB03KT P6SM SCT150 BKN200
     FM311100 VRB03KT P6SM BKN025
     FM311500 12005KT 4SM BR OVC015=



000
FTUS46 KLOX 301700 RRA
TAFSBA
TAF
KSBA 301743Z 3018/3118 20005KT P6SM BKN150
     FM302000 22008KT P6SM SCT050 SCT150 BKN200
     FM310300 VRB03KT P6SM OVC100
     FM310900 09006KT P6SM BKN015 OVC150=



000
FTUS46 KLOX 301700 RRA
TAFLAX
TAF
KLAX 301743Z 3018/3124 08004KT P6SM SCT200
     FM302000 25012KT P6SM SCT150 BKN200
     FM310300 VRB03KT P6SM SCT150 BKN200
     FM311100 VRB03KT P6SM BKN025
     FM311500 12005KT 4SM BR OVC015
     FM312000 23010KT P6SM OVC015=



000
FTUS46 KLOX 301700 RRA
TAFSMX
TAF
KSMX 301743Z 3018/3118 26003KT P6SM BKN200
     FM310200 26008KT P6SM BKN025 OVC100
     FM310500 14006KT P6SM OVC025
     FM310900 VRB04KT P6SM BKN015 OVC030=



000
FTUS46 KLOX 301700 RRA
TAFSBP
TAF
KSBP 301743Z 3018/3118 00000KT P6SM BKN200
     FM310200 26008KT P6SM BKN025 OVC100
     FM310500 14006KT P6SM OVC025
     FM310900 VRB04KT P6SM BKN015 OVC030=



000
FTUS46 KLOX 301700 RRA
TAFBUR
TAF
KBUR 301743Z 3018/3118 00000KT P6SM BKN200
     FM302000 17008KT P6SM SCT150 BKN200
     FM310400 VRB03KT P6SM BKN150
     FM311100 VRB03KT P6SM BKN020
     FM311500 12005KT 4SM BR OVC010=



000
FTUS46 KLOX 301700 RRA
TAFBUR
TAF
KBUR 301743Z 3018/3118 00000KT P6SM BKN200
     FM302000 17008KT P6SM SCT150 BKN200
     FM310400 VRB03KT P6SM BKN150
     FM311100 VRB03KT P6SM BKN020
     FM311500 12005KT 4SM BR OVC010=



000
FTUS46 KLOX 301700 RRA
TAFPRB
TAF
KPRB 301743Z 3018/3118 00000KT P6SM BKN200
     FM302100 21012KT P6SM SCT150 BKN200
     FM310300 24006KT P6SM OVC100
     FM310900 VRB03KT P6SM BKN030 OVC100=



000
FTUS46 KLOX 301700 RRA
TAFLAX
TAF
KLAX 301743Z 3018/3124 08004KT P6SM SCT200
     FM302000 25012KT P6SM SCT150 BKN200
     FM310300 VRB03KT P6SM SCT150 BKN200
     FM311100 VRB03KT P6SM BKN025
     FM311500 12005KT 4SM BR OVC015
     FM312000 23010KT P6SM OVC015=



000
FTUS46 KLOX 301700 RRA
TAFLGB
TAF
KLGB 301743Z 3018/3118 34003KT P6SM BKN200
     FM302300 25008KT P6SM SCT150 BKN200
     FM310300 VRB03KT P6SM SCT150 BKN200
     FM311100 VRB03KT P6SM BKN025
     FM311500 12005KT 4SM BR OVC015=



000
FTUS46 KLOX 301700 RRA
TAFSMX
TAF
KSMX 301743Z 3018/3118 26003KT P6SM BKN200
     FM310200 26008KT P6SM BKN025 OVC100
     FM310500 14006KT P6SM OVC025
     FM310900 VRB04KT P6SM BKN015 OVC030=



000
FTUS46 KLOX 301700 RRA
TAFPMD
TAF
KPMD 301743Z 3018/3118 00000KT P6SM BKN200
     FM302100 25012KT P6SM SCT150 BKN200
     FM310200 25006KT P6SM SCT120 BKN180
     FM310800 25012KT P6SM BKN120=



000
FTUS46 KLOX 301700 RRA
TAFVNY
TAF
KVNY 301743Z 3018/3118 00000KT P6SM BKN200
     FM302000 16008KT P6SM SCT150 BKN200
     FM310400 VRB03KT P6SM BKN150
     FM311100 VRB03KT P6SM BKN020
     FM311500 12005KT 4SM BR OVC010=



000
FTUS46 KLOX 301700 RRA
TAFSBP
TAF
KSBP 301743Z 3018/3118 00000KT P6SM BKN200
     FM310200 26008KT P6SM BKN025 OVC100
     FM310500 14006KT P6SM OVC025
     FM310900 VRB04KT P6SM BKN015 OVC030=



000
FTUS46 KLOX 301700 RRA
TAFSBA
TAF
KSBA 301743Z 3018/3118 20005KT P6SM BKN150
     FM302000 22008KT P6SM SCT050 SCT150 BKN200
     FM310300 VRB03KT P6SM OVC100
     FM310900 09006KT P6SM BKN015 OVC150=



000
FTUS46 KLOX 301700 RRA
TAFWJF
TAF
KWJF 301743Z 3018/3118 34003KT P6SM BKN200
     FM302000 19010KT P6SM SCT120 BKN200
     FM310200 25006KT P6SM SCT120 BKN180
     FM310900 25012KT P6SM BKN120=



000
FTUS46 KLOX 301500 AAA
TAFLAX
TAF AMD
KLAX 301501Z 3015/3118 08004KT P6SM SCT200
     FM301700 23006KT P6SM BKN200
     FM302000 25012KT P6SM SCT150 BKN200
     FM310500 VRB03KT 4SM BR OVC015
     FM311300 12005KT 4SM BR OVC015=



000
FTUS46 KLOX 301100 RRA
TAFPRB
TAF
KPRB 301142Z 3012/3112 VRB03KT P6SM BKN200
     FM302100 21012G20KT P6SM SCT150 BKN200
     FM310300 24006KT P6SM OVC100
     FM310900 20006KT P6SM BKN030 OVC100=



000
FTUS46 KLOX 301100 RRA
TAFSBA
TAF
KSBA 301142Z 3012/3112 VRB03KT P6SM BKN200
     FM302000 24008KT P6SM SCT050 SCT150 BKN200
     FM310300 VRB03KT P6SM OVC100
     FM310900 09006KT P6SM BKN015 OVC150=



000
FTUS46 KLOX 301100 RRA
TAFLGB
TAF
KLGB 301142Z 3012/3112 VRB03KT P6SM BKN200
     FM301700 19008KT P6SM SCT150 BKN200
     FM302300 25008KT P6SM SCT150 BKN200
     FM310500 VRB03KT 5SM BR OVC015=



000
FTUS46 KLOX 301100 RRA
TAFBUR
TAF
KBUR 301142Z 3012/3112 VRB03KT P6SM BKN200
     FM302000 17008KT P6SM SCT150 BKN200
     FM310400 VRB03KT P6SM BKN150
     FM311000 VRB03KT 6SM BR BKN025 OVC150=



000
FTUS46 KLOX 301100 RRA
TAFVNY
TAF
KVNY 301142Z 3012/3112 VRB03KT P6SM BKN200
     FM302000 16008KT P6SM SCT150 BKN200
     FM310400 VRB03KT P6SM BKN150
     FM311000 VRB03KT 6SM BR BKN025 OVC150=



000
FTUS46 KLOX 301100 RRA
TAFPMD
TAF
KPMD 301142Z 3012/3112 19005KT P6SM BKN200
     FM301400 VRB05KT P6SM BKN200
     FM302100 25012KT P6SM SCT150 BKN200
     FM310200 25006KT P6SM SCT120 BKN180
     FM310800 25012KT P6SM BKN120=



000
FTUS46 KLOX 301100 RRA
TAFSBP
TAF
KSBP 301142Z 3012/3112 VRB03KT P6SM BKN200
     FM301600 26008KT P6SM SCT150 BKN200
     FM310200 26008KT P6SM BKN025 OVC100
     FM310500 14006KT P6SM OVC025
     FM310900 VRB04KT P6SM BKN015 OVC030=



000
FTUS46 KLOX 301100 RRA
TAFLAX
TAF
KLAX 301142Z 3012/3118 VRB03KT P6SM FEW016 BKN200
     FM301600 23006KT P6SM SCT010 BKN200
     FM302000 25012KT P6SM SCT150 BKN200
     FM310500 VRB03KT 4SM BR OVC015
     FM311300 12005KT 4SM BR OVC015=



000
FTUS46 KLOX 301100 RRA
TAFWJF
TAF
KWJF 301142Z 3012/3112 VRB05KT P6SM BKN200
     FM302000 19010KT P6SM SCT120 BKN200
     FM310200 25006KT P6SM SCT120 BKN180
     FM310900 25012KT P6SM BKN120=



000
FTUS46 KLOX 301100 RRA
TAFSMX
TAF
KSMX 301142Z 3012/3112 VRB03KT P6SM BKN200
     FM301600 26008KT P6SM SCT150 BKN200
     FM310200 26008KT P6SM BKN025 OVC100
     FM310500 14006KT P6SM OVC025
     FM310900 VRB04KT P6SM BKN015 OVC030=



000
FTUS46 KLOX 300900 AAA
TAFLAX
TAF AMD
KLAX 300911Z 3009/3112 VRB03KT P6SM FEW016 BKN250
     FM301600 23006KT P6SM SCT010 BKN250
     FM302000 25012KT P6SM SCT150 BKN250
     FM310500 VRB03KT 4SM BR OVC015=



000
FTUS46 KLOX 300500
TAFPRB
TAF
KPRB 300537Z 3006/3106 VRB03KT P6SM SCT250
     FM302100 21012G20KT P6SM SCT150 BKN250
     FM310300 24006KT P6SM OVC100=



000
FTUS46 KLOX 300500
TAFSBA
TAF
KSBA 300537Z 3006/3106 VRB03KT P6SM BKN250
     FM302000 24008KT P6SM SCT050 SCT150 BKN250
     FM310300 VRB03KT P6SM OVC100=



000
FTUS46 KLOX 300500
TAFSBP
TAF
KSBP 300537Z 3006/3106 VRB03KT P6SM BKN250
     FM301600 26008KT P6SM SCT150 BKN250
     FM310200 26008KT P6SM OVC025
     FM310500 VRB03KT P6SM OVC025=



000
FTUS46 KLOX 300500
TAFBUR
TAF
KBUR 300537Z 3006/3106 VRB03KT P6SM BKN250
     FM302000 17008KT P6SM SCT150 BKN250
     FM310400 VRB03KT P6SM OVC150=



000
FTUS46 KLOX 300500
TAFSMX
TAF
KSMX 300537Z 3006/3106 VRB03KT P6SM BKN250
     FM301600 26008KT P6SM SCT150 BKN250
     FM310200 26008KT P6SM OVC025
     FM310500 VRB03KT P6SM OVC015=



000
FTUS46 KLOX 300500
TAFVNY
TAF
KVNY 300537Z 3006/3106 VRB03KT P6SM BKN250
     FM302000 16008KT P6SM SCT150 BKN250
     FM310400 VRB03KT P6SM OVC150=



000
FTUS46 KLOX 300500
TAFWJF
TAF
KWJF 300537Z 3006/3106 VRB06KT P6SM SCT250
     FM302000 19010KT P6SM SCT120 BKN250
     FM310200 25006KT P6SM SCT120 BKN180=



000
FTUS46 KLOX 300500
TAFLGB
TAF
KLGB 300537Z 3006/3106 VRB03KT P6SM BKN250
     FM301700 19008KT P6SM SCT150 BKN250
     FM302300 30008KT P6SM SCT150 BKN250
     FM310500 VRB03KT 5SM BR OVC015=



000
FTUS46 KLOX 300500
TAFPMD
TAF
KPMD 300537Z 3006/3106 19005KT P6SM SCT250
     FM301400 VRB05KT P6SM BKN250
     FM302100 25012KT P6SM SCT120 BKN250
     FM310200 25006KT P6SM SCT120 BKN180=



000
FTUS46 KLOX 300500
TAFLAX
TAF
KLAX 300537Z 3006/3112 VRB03KT P6SM SCT250
     FM301600 23006KT P6SM SCT010 BKN250
     FM302000 25012KT P6SM SCT150 BKN250
     FM310500 VRB03KT 4SM BR OVC015=



000
FTUS46 KLOX 300400 AAB
TAFLAX
TAF AMD
KLAX 300419Z 3004/3106 VRB03KT P6SM SCT250
     FM301600 23006KT P6SM SCT010 BKN250
     FM302000 25012KT P6SM SCT150 BKN250=



000
FTUS46 KLOX 300400 AAA
TAFLGB
TAF AMD
KLGB 300419Z 3004/3024 VRB03KT P6SM BKN250
     FM301700 19008KT P6SM SCT150 BKN250=



000
FTUS46 KLOX 300300 AAA
TAFLAX
TAF AMD
KLAX 300300Z 3003/3106 24006KT P6SM SCT250
     FM300600 VRB03KT 6SM BR SCT004 SCT250
     FM301100 00000KT 5SM BR BKN004 BKN250
     FM301600 23006KT P6SM SCT010 BKN250
     FM302000 25012KT P6SM SCT150 BKN250=



000
FTUS46 KLOX 292300 RRA
TAFSMX
TAF
KSMX 292353Z 3000/3024 31010KT P6SM SCT250
     FM300300 VRB03KT P6SM SCT250
     FM301000 VRB03KT 5SM BR SCT004 BKN250
     FM301600 25009KT P6SM SCT150 BKN250=



000
FTUS46 KLOX 292300 RRA
TAFPMD
TAF
KPMD 292353Z 3000/3024 05007KT P6SM SKC
     FM300200 VRB03KT P6SM SKC
     FM300600 19005KT P6SM SCT200
     FM301600 VRB06KT P6SM BKN200
     FM302100 21010KT P6SM SCT120 BKN200=



000
FTUS46 KLOX 292300 RRA
TAFSBA
TAF
KSBA 292353Z 3000/3024 24008KT P6SM SCT250
     FM300200 VRB03KT P6SM SCT250
     FM300500 09006KT 6SM BR SCT004 BKN250
     FM301400 15006KT 5SM BR BKN004 BKN250
     FM302000 24009KT P6SM SCT050 SCT150 BKN250=



000
FTUS46 KLOX 292300 RRA
TAFBUR
TAF
KBUR 292353Z 3000/3024 18009KT P6SM SCT250
     FM300400 VRB03KT P6SM SCT250
     FM301600 15004KT P6SM BKN250
     FM302000 17009KT P6SM SCT150 BKN250=



000
FTUS46 KLOX 292300 RRA
TAFLGB
TAF
KLGB 292353Z 3000/3024 30008KT P6SM SCT250
     FM300400 VRB03KT 6SM BR SCT004 SCT250
     FM300800 00000KT 5SM BR BKN004 BKN250
     FM301700 19007KT P6SM SCT010 SCT150 BKN250=



000
FTUS46 KLOX 292300 RRA
TAFVNY
TAF
KVNY 292353Z 3000/3024 17009KT P6SM SCT250
     FM300400 VRB03KT P6SM SCT250
     FM302000 16009KT P6SM SCT150 BKN250=



000
FTUS46 KLOX 292300 RRA
TAFLAX
TAF
KLAX 292353Z 3000/3106 24008KT P6SM SCT250
     FM300300 26006KT 6SM BR SCT004 SCT250
     FM300600 VRB03KT 5SM BR BKN004 BKN250
     FM301600 23006KT P6SM SCT010 BKN250
     FM302000 25012KT P6SM SCT150 BKN250=



000
FTUS46 KLOX 292300 RRA
TAFWJF
TAF
KWJF 292353Z 3000/3024 05007KT P6SM SKC
     FM300300 29006KT P6SM SCT200
     FM301000 VRB06KT P6SM BKN200
     FM302000 19010KT P6SM SCT120 BKN200=



000
FTUS46 KLOX 292300 RRA
TAFPRB
TAF
KPRB 292353Z 3000/3024 10008KT P6SM SCT250
     FM300400 VRB03KT P6SM SCT250
     FM302100 21012G20KT P6SM SCT150 BKN250=



000
FTUS46 KLOX 292300 RRA
TAFSBP
TAF
KSBP 292353Z 3000/3024 32011KT P6SM SCT250
     FM300300 VRB03KT P6SM SCT250
     FM301100 VRB03KT 6SM BR SCT004 BKN250
     FM301600 25008KT P6SM SCT150 BKN250=



000
FTUS46 KLOX 292100 AAA
TAFPRB
TAF AMD
KPRB 292123Z 2921/3018 10008KT P6SM SKC
     FM300400 VRB03KT P6SM SKC=



000
FTUS46 KLOX 292000 AAA
TAFLAX
TAF AMD
KLAX 292051Z 2921/3024 24008KT P6SM SKC
     FM300300 26006KT P6SM SKC
     FM300800 VRB03KT 5SM BR BKN007
     FM301600 26006KT P6SM SCT010
     FM302000 26012KT P6SM SKC=



000
FTUS46 KLOX 291700
TAFSMX
TAF
KSMX 291740Z 2918/3018 00000KT P6SM SKC
     FM292000 30010KT P6SM SKC
     FM300200 VRB03KT P6SM SKC
     FM301100 VRB03KT 5SM BR SCT005=



000
FTUS46 KLOX 291700
TAFBUR
TAF
KBUR 291740Z 2918/3018 22003KT P6SM SKC
     FM292100 18006KT P6SM SKC
     FM300200 VRB03KT P6SM SKC=



000
FTUS46 KLOX 291700
TAFPMD
TAF
KPMD 291740Z 2918/3018 00000KT P6SM SKC
     FM291900 06007KT P6SM SKC
     FM300200 VRB03KT P6SM SKC=



000
FTUS46 KLOX 291700
TAFSBA
TAF
KSBA 291740Z 2918/3018 00000KT P6SM SKC
     FM292100 24008KT P6SM SKC
     FM300200 VRB03KT P6SM SKC
     FM301100 09006KT 5SM BR SCT006
     FM301400 16006KT 3SM BR BKN005=



000
FTUS46 KLOX 291700
TAFLAX
TAF
KLAX 291740Z 2918/3024 00000KT P6SM FEW010
     FM291900 26010KT P6SM SKC
     FM300300 26006KT P6SM SKC
     FM300800 VRB03KT 5SM BR BKN007
     FM301600 26006KT P6SM SCT010
     FM302000 26012KT P6SM SKC=



000
FTUS46 KLOX 291700
TAFWJF
TAF
KWJF 291740Z 2918/3018 00000KT P6SM SKC
     FM291900 07007KT P6SM SKC
     FM300200 VRB04KT P6SM SKC=



000
FTUS46 KLOX 291700
TAFSBP
TAF
KSBP 291740Z 2918/3018 00000KT P6SM SKC
     FM292000 31010KT P6SM SKC
     FM300400 VRB03KT P6SM SKC
     FM301200 VRB03KT 5SM BR SCT005=



000
FTUS46 KLOX 291700
TAFVNY
TAF
KVNY 291740Z 2918/3018 00000KT P6SM SKC
     FM292200 15006KT P6SM SKC
     FM300200 VRB03KT P6SM SKC=



000
FTUS46 KLOX 291700
TAFLGB
TAF
KLGB 291740Z 2918/3018 36003KT P6SM SKC
     FM291900 17008KT P6SM SKC
     FM292300 30008KT P6SM SKC
     FM300400 VRB03KT P6SM SKC
     FM300700 16006KT 6SM BR BKN007=



000
FTUS46 KLOX 291700
TAFPRB
TAF
KPRB 291740Z 2918/3018 00000KT P6SM SKC
     FM292200 10008KT P6SM SKC
     FM300400 VRB03KT P6SM SKC=



000
FTUS46 KLOX 291500 AAA
TAFLAX
TAF AMD
KLAX 291503Z 2915/3018 00000KT P6SM SKC
     FM291900 26010KT P6SM SKC
     FM300300 26006KT P6SM SKC
     FM300800 VRB03KT 5SM BR BKN007
     FM301600 18006KT P6SM OVC012=



000
FTUS46 KLOX 291100
TAFBUR
TAF
KBUR 291121Z 2912/3012 VRB03KT P6SM SKC
     FM292100 18006KT P6SM SKC
     FM300200 VRB03KT P6SM SKC=



000
FTUS46 KLOX 291100
TAFVNY
TAF
KVNY 291121Z 2912/3012 VRB05KT P6SM SKC
     FM292200 15006KT P6SM SKC
     FM300200 VRB03KT P6SM SKC=



000
FTUS46 KLOX 291100
TAFLAX
TAF
KLAX 291121Z 2912/3018 VRB03KT P6SM SKC
     FM291900 26010KT P6SM SKC
     FM300300 26006KT P6SM SKC
     FM300800 VRB03KT 5SM BR BKN007
     FM301600 18006KT P6SM OVC012=



000
FTUS46 KLOX 291100
TAFWJF
TAF
KWJF 291121Z 2912/3012 VRB04KT P6SM SKC
     FM291800 06008KT P6SM SKC
     FM300200 VRB04KT P6SM SKC=



000
FTUS46 KLOX 291100
TAFPMD
TAF
KPMD 291121Z 2912/3012 VRB05KT P6SM SKC=



000
FTUS46 KLOX 291100
TAFLGB
TAF
KLGB 291121Z 2912/3012 VRB03KT P6SM SKC
     FM291600 18006KT P6SM SKC
     FM292300 30008KT P6SM SKC
     FM300400 VRB03KT P6SM SKC
     FM300700 16006KT 6SM BR BKN007=



000
FTUS46 KLOX 291100
TAFPRB
TAF
KPRB 291121Z 2912/3012 VRB03KT P6SM SKC
     FM292200 10008KT P6SM SKC
     FM300400 VRB03KT P6SM SKC=



000
FTUS46 KLOX 291100
TAFSMX
TAF
KSMX 291121Z 2912/3012 VRB05KT P6SM SKC
     FM292000 30010KT P6SM SKC
     FM300200 VRB03KT P6SM SKC=



000
FTUS46 KLOX 291100
TAFSBA
TAF
KSBA 291121Z 2912/3012 VRB03KT P6SM SKC
     FM291600 16006KT P6SM SKC
     FM292100 24008KT P6SM SKC
     FM300200 VRB03KT P6SM SKC
     FM301100 09006KT 5SM BR SCT006=



000
FTUS46 KLOX 291100
TAFSBP
TAF
KSBP 291121Z 2912/3012 VRB03KT P6SM SKC
     FM292000 31010KT P6SM SKC
     FM300400 VRB03KT P6SM SKC=



000
FTUS46 KLOX 290900 AAA
TAFLAX
TAF AMD
KLAX 290905Z 2909/3012 VRB03KT P6SM SKC
     FM291900 26010KT P6SM SKC
     FM300300 26006KT P6SM SKC
     FM300700 VRB03KT P6SM SKC=



000
FTUS46 KLOX 290500
TAFPMD
TAF
KPMD 290521Z 2906/3006 VRB05KT P6SM SKC=



000
FTUS46 KLOX 290500
TAFSBP
TAF
KSBP 290521Z 2906/3006 VRB03KT P6SM SKC
     FM292000 31010KT P6SM SKC
     FM300400 VRB03KT P6SM SKC=



000
FTUS46 KLOX 290500
TAFSMX
TAF
KSMX 290521Z 2906/3006 VRB05KT P6SM SKC
     FM292000 30010KT P6SM SKC
     FM300200 VRB03KT P6SM SKC=



000
FTUS46 KLOX 290500
TAFBUR
TAF
KBUR 290521Z 2906/3006 VRB03KT P6SM SKC
     FM292100 18006KT P6SM SKC
     FM300200 VRB03KT P6SM SKC=



000
FTUS46 KLOX 290500
TAFSBA
TAF
KSBA 290521Z 2906/3006 VRB03KT P6SM SKC
     FM291600 16006KT P6SM SKC
     FM292100 24008KT P6SM SKC
     FM300200 VRB03KT P6SM SKC=



000
FTUS46 KLOX 290500
TAFLAX
TAF
KLAX 290521Z 2906/3012 VRB03KT P6SM SKC
     FM291900 26010KT P6SM SKC
     FM300300 26006KT P6SM SKC
     FM300700 VRB03KT P6SM SKC=



000
FTUS46 KLOX 290500
TAFLGB
TAF
KLGB 290521Z 2906/3006 VRB03KT P6SM SKC
     FM291600 18006KT P6SM SKC
     FM292300 30008KT P6SM SKC
     FM300400 VRB03KT P6SM SKC=



000
FTUS46 KLOX 290500
TAFWJF
TAF
KWJF 290521Z 2906/3006 VRB05KT P6SM SKC
     FM291800 06008KT P6SM SKC
     FM300200 VRB03KT P6SM SKC=



000
FTUS46 KLOX 290500
TAFPRB
TAF
KPRB 290521Z 2906/3006 VRB03KT P6SM SKC
     FM292200 10008KT P6SM SKC
     FM300400 VRB03KT P6SM SKC=



000
FTUS46 KLOX 290500
TAFVNY
TAF
KVNY 290521Z 2906/3006 VRB05KT P6SM SKC
     FM292200 15006KT P6SM SKC
     FM300200 VRB03KT P6SM SKC=



000
FTUS46 KLOX 290200 AAA
TAFWJF
TAF AMD
KWJF 290259Z 2903/2924 30008KT P6SM SKC
     FM290700 VRB05KT P6SM SKC
     FM291800 07010KT P6SM SKC=



000
FTUS46 KLOX 290200 AAA
TAFLAX
TAF AMD
KLAX 290257Z 2903/3006 27005KT P6SM SKC
     FM291300 VRB03KT 6SM BR SCT004
     FM291600 24005KT P6SM SKC
     FM292000 25010KT P6SM SKC
     FM300400 26005KT P6SM SCT250=



    US Dept of Commerce
    National Oceanic and Atmospheric Administration
    National Weather Service
    1325 East West Highway
    Silver Spring, MD 20910
    Page Author: NWS Internet Services Team
Disclaimer
Information Quality
Credits
Glossary
Privacy Policy
Freedom of Information Act (FOIA)
About Us
Career Opportunities